Indian Agency, Colorado
Current Conditions -  °F | °C
As of 6:53 PM on Saturday 20 Dec 2014 (Local Time) from KDRO Reporting Station
Overcast Overcast  
Wind Chill: 32°   Ceiling: 7000
Heat Index: 32°   Visibility: 10mi
Dew Point: 27°   Wind: 3mph
Humidity: 82%   Direction: 90°E
Pressure: 30.1"   Gusts: NA
Location:  37.0891°N, 107.649°W
Report Text: KDRO 210153Z AUTO 09003KT 10SM BKN070 OVC090 00/M03 A3010 RMK AO2 SLP224 T00001028
Loading
Personal Weather Stations






























Interactive Weather Map New forecast layout! Learn more

10-Day Weather Forecast

Advertisements
Track Severe Weather on mobile